Portada
METAR-TAF:

METAR-TAF

Aeroports :

Leuchars, Escòcia

latitud: 56-23N, longitud: 002-52W, altitud: 12 m

Observació

L'informe es va fer fa 44 minuts, a les 20:50 UTC
Vent 4 kt del Est/Nord-Est
Temperatura 15°C
Humitat 94%
Pressió 1018 hPa
Visibilitat: 6000 m
Cel ennuvolat a una alçada de 18000 ft
boirina

METAR: EGQL 242050Z 06004KT 6000 BR BKN180 15/14 Q1018 WHT

Hora: 22:34 (21:34 UTC)

Pronòstic

L'informe es va fer fa 2 hores i 8 minuts, a les 19:26 UTC
Pronòstic vàlid del 24 a les 21 UTC al 25 a les 06 UTC
Vent 5 kt amb direcció variable
Visibilitat 10 km o més
sense núvols per sota de 1500 mi sense presència de cumulonimbus.
Probabilitat 40%
l' 24 a les 21 UTC al 25 a les 06 UTC
Visibilitat: 5000 m
calitja
Probabilitat 30%
l' 25 a les 00 UTC al 25 a les 06 UTC
Visibilitat: 1500 m
Núvols disperses a una alçada de 200 ft
boirina

TAF: EGQL 241926Z 2421/2506 VRB05KT CAVOK PROB40 2421/2506 5000 HZ PROB30 2500/2506 1500 BR SCT002

Observacions i pronòstics meteorològics de més de 4000 aeroports (METAR i TAF).

Les estacions disponibles són els punts grocs i vermells al mapa.

Posi el ratolí al punt desitjat per veure el nom de l'estació.

Feu clic per veure les observacions i els pronòstics meteorològics.

Per canviar el mapa: feu clic els botons verds amb una creu de color negre per apropar; al botó verd amb un guió per allunyar la imatge; o en les fletxes verdes per a mapes adjacents.


METAR-TAF: